Juazeiro do Norte, Brazil
Current Conditions -  °F | °C
As of 6:00 AM on Friday 31 Oct 2014 (Local Time) from SBJU Reporting Station
Scattered Clouds Scattered Clouds  
Wind Chill: 79°   Ceiling: Unl
Heat Index: 81°   Visibility: 6mi
Dew Point: 66°   Wind: 0mph
Humidity: 65%   Direction: NA
Pressure: 30.03"   Gusts: NA
Location:  7.21°S, 39.32°W
Report Text: SBJU 310900Z 00000KT 9999 SCT020 26/19 Q1017
Loading
Personal Weather Stations






























Interactive Weather Map
Tropical Storm Tracking
New forecast layout! Learn more

10-Day Weather Forecast

Advertisements
Track Severe Weather on mobile